createdAt,value
2023-02-16T00:00:12.589Z,157.46
2023-02-16T00:01:12.899Z,165.34
2023-02-16T00:02:12.949Z,166.12
2023-02-16T00:03:13.085Z,161.11
2023-02-16T00:04:13.217Z,156.47
2023-02-16T00:05:13.395Z,152.56
2023-02-16T00:06:13.547Z,147.93
2023-02-16T00:07:13.723Z,144.28
2023-02-16T00:08:13.996Z,142.81
2023-02-16T00:09:14.139Z,142.06
2023-02-16T00:10:14.292Z,139.97
2023-02-16T00:11:14.413Z,137.16
2023-02-16T00:12:14.522Z,133.81
2023-02-16T00:13:14.638Z,131.92
2023-02-16T00:14:14.763Z,130.43
2023-02-16T00:15:14.882Z,128.86
2023-02-16T00:16:15.015Z,128.47
2023-02-16T00:17:15.067Z,127.84
2023-02-16T00:18:15.201Z,127.98
2023-02-16T00:19:15.296Z,126.85
2023-02-16T00:20:15.394Z,126.43
2023-02-16T00:40:17.879Z,120.15
2023-02-16T00:41:18.012Z,118.73
2023-02-16T00:42:18.100Z,118.78
2023-02-16T00:43:18.196Z,119.71
2023-02-16T00:44:18.299Z,130.32
2023-02-16T00:45:18.418Z,143.60
2023-02-16T00:46:18.642Z,147.86
2023-02-16T00:47:18.727Z,150.58
2023-02-16T00:48:18.857Z,152.02
2023-02-16T00:49:19.052Z,144.11
2023-02-16T00:50:19.222Z,137.97
2023-02-16T00:51:25.870Z,129.81
2023-02-16T00:52:20.492Z,126.10
2023-02-16T00:53:19.593Z,122.52
2023-02-16T00:54:19.693Z,120.62
2023-02-16T01:56:27.809Z,91.74
2023-02-16T01:57:27.954Z,92.63
2023-02-16T01:58:28.076Z,93.64
2023-02-16T01:59:28.221Z,94.58
2023-02-16T02:00:28.319Z,93.04
2023-02-16T02:01:28.453Z,90.02
2023-02-16T02:02:28.567Z,86.70
2023-02-16T02:03:28.645Z,86.48
2023-02-16T02:04:28.777Z,84.99
2023-02-16T02:05:28.908Z,83.08
2023-02-16T02:06:29.060Z,82.04
2023-02-16T02:07:29.194Z,81.06
2023-02-16T02:08:29.313Z,80.11
2023-02-16T02:09:29.446Z,79.76
2023-02-16T02:10:29.587Z,78.24
2023-02-16T02:11:29.729Z,85.76
2023-02-16T02:12:29.876Z,101.99
2023-02-16T02:13:30.006Z,105.25
2023-02-16T02:14:30.165Z,112.61
2023-02-16T02:15:30.322Z,122.21
2023-02-16T02:16:30.551Z,122.36
2023-02-16T02:17:30.644Z,122.19
2023-02-16T02:18:30.855Z,128.56
2023-02-16T02:19:31.061Z,131.83
2023-02-16T02:20:31.237Z,126.64
2023-02-16T02:21:31.450Z,119.85
2023-02-16T02:22:31.629Z,114.08
2023-02-16T02:23:31.782Z,109.71
2023-02-16T02:56:37.907Z,122.26
2023-02-16T02:57:38.071Z,119.15
2023-02-16T02:58:38.230Z,118.03
2023-02-16T02:59:38.356Z,122.22
2023-02-16T03:00:38.584Z,129.40
2023-02-16T03:01:38.687Z,137.86
2023-02-16T04:02:47.831Z,53.59
2023-02-16T04:03:47.981Z,53.56
2023-02-16T04:04:48.040Z,52.53
2023-02-16T04:05:48.137Z,54.05
2023-02-16T04:06:48.229Z,49.96
2023-02-16T04:07:48.335Z,58.11
2023-02-16T04:08:48.453Z,75.28
2023-02-16T04:09:48.589Z,91.52
2023-02-16T04:10:48.733Z,105.49
2023-02-16T04:11:48.897Z,112.57
2023-02-16T04:12:49.016Z,115.52
2023-02-16T04:13:49.146Z,117.87
2023-02-16T04:14:49.230Z,102.33
2023-02-16T04:15:49.338Z,95.48
2023-02-16T04:16:49.471Z,106.94
2023-02-16T04:17:49.587Z,112.49
2023-02-16T04:18:49.698Z,93.57
2023-02-16T04:19:49.788Z,89.25
2023-02-16T05:08:57.923Z,85.25
2023-02-16T05:09:58.039Z,81.85
2023-02-16T05:10:58.135Z,82.65
2023-02-16T05:11:58.234Z,82.67
2023-02-16T05:12:58.338Z,83.62
2023-02-16T05:13:58.461Z,76.13
2023-02-16T05:14:58.585Z,73.42
2023-02-16T05:15:58.753Z,72.40
2023-02-16T05:16:58.796Z,73.06
2023-02-16T05:17:58.908Z,73.25
2023-02-16T05:18:59.056Z,74.32
2023-02-16T05:19:59.160Z,80.74
2023-02-16T05:20:59.288Z,86.35
2023-02-16T05:21:59.384Z,113.54
2023-02-16T05:22:59.533Z,124.07
2023-02-16T05:23:59.630Z,144.19
2023-02-16T05:24:59.723Z,161.37
2023-02-16T05:25:59.823Z,173.53
2023-02-16T05:26:59.922Z,184.75
2023-02-16T05:28:00.042Z,186.97
2023-02-16T05:29:00.114Z,187.86
2023-02-16T05:30:00.260Z,185.21
2023-02-16T05:31:00.405Z,187.30
2023-02-16T05:32:02.557Z,191.96
2023-02-16T05:33:00.515Z,195.16
2023-02-16T05:34:00.616Z,197.49
2023-02-16T05:35:00.693Z,200.27
2023-02-16T05:36:00.787Z,200.16
2023-02-16T05:37:00.885Z,189.71
2023-02-16T05:38:00.965Z,191.70
2023-02-16T05:39:01.052Z,191.53
2023-02-16T05:40:01.148Z,189.22
2023-02-16T05:41:01.400Z,188.49
2023-02-16T05:42:01.337Z,184.19
2023-02-16T05:43:01.422Z,182.91
2023-02-16T05:44:01.517Z,175.93
2023-02-16T05:45:01.608Z,175.80
2023-02-16T05:46:01.739Z,174.12
2023-02-16T05:47:01.790Z,173.08
2023-02-16T05:48:01.884Z,172.20
2023-02-16T05:49:01.970Z,174.89
2023-02-16T05:50:02.069Z,179.43
2023-02-16T05:51:02.741Z,181.24
2023-02-16T05:52:02.259Z,181.89
2023-02-16T05:53:02.365Z,185.47
2023-02-16T05:54:02.438Z,189.76
2023-02-16T05:55:02.526Z,193.49
2023-02-16T05:56:02.620Z,197.31
2023-02-16T05:57:02.723Z,199.43
2023-02-16T05:58:02.803Z,195.76
2023-02-16T05:59:02.892Z,194.23
2023-02-16T06:00:02.999Z,194.50
2023-02-16T06:01:03.448Z,194.84
2023-02-16T06:02:03.171Z,188.63
2023-02-16T06:03:03.265Z,179.06
2023-02-16T06:04:03.405Z,172.07
2023-02-16T06:05:03.458Z,173.21
2023-02-16T06:06:03.555Z,180.09
2023-02-16T06:07:03.671Z,185.98
2023-02-16T06:08:03.751Z,193.15
2023-02-16T06:09:03.842Z,196.60
2023-02-16T06:10:03.927Z,191.62
2023-02-16T06:11:04.437Z,194.83
2023-02-16T06:12:04.187Z,186.23
2023-02-16T06:13:04.284Z,183.33
2023-02-16T06:14:04.392Z,186.96
2023-02-16T06:15:04.465Z,184.74
2023-02-16T06:16:04.616Z,174.31
2023-02-16T06:17:04.673Z,167.20
2023-02-16T06:18:04.767Z,163.26
2023-02-16T06:19:04.879Z,163.19
2023-02-16T06:20:04.972Z,166.61
2023-02-16T06:21:05.375Z,159.84
2023-02-16T06:22:05.175Z,158.09
2023-02-16T06:23:05.273Z,187.41
2023-02-16T06:25:05.493Z,214.84
2023-02-16T06:26:05.585Z,253.73
2023-02-16T06:27:05.714Z,265.87
2023-02-16T06:28:05.876Z,263.48
2023-02-16T06:30:06.262Z,254.62
2023-02-16T06:31:06.868Z,247.51
2023-02-16T06:41:07.947Z,110.26
2023-02-16T06:42:08.101Z,100.36
2023-02-16T06:43:08.253Z,94.96
2023-02-16T06:44:08.388Z,92.67
2023-02-16T06:45:08.525Z,83.12
2023-02-16T06:46:08.694Z,77.57
2023-02-16T06:47:08.811Z,66.27
2023-02-16T06:48:08.974Z,60.20
2023-02-16T06:49:09.147Z,58.87
2023-02-16T07:44:17.944Z,157.22
2023-02-16T07:45:18.110Z,130.53
2023-02-16T07:46:18.257Z,117.90
2023-02-16T07:47:18.431Z,102.93
2023-02-16T07:48:18.613Z,92.87
2023-02-16T07:49:18.782Z,73.94
2023-02-16T07:50:18.948Z,69.26
2023-02-16T07:51:19.089Z,70.49
2023-02-16T07:52:19.216Z,76.61
2023-02-16T07:53:19.352Z,93.16
2023-02-16T07:54:19.485Z,99.72
2023-02-16T07:55:19.630Z,77.45
2023-02-16T07:56:19.759Z,60.38
2023-02-16T07:57:19.887Z,54.86
2023-02-16T07:58:19.995Z,64.56
2023-02-16T07:59:20.129Z,58.95
2023-02-16T08:00:20.284Z,43.90
2023-02-16T08:01:20.431Z,36.46
2023-02-16T08:02:20.627Z,37.26
2023-02-16T08:03:20.864Z,61.09
2023-02-16T08:04:20.829Z,60.44
2023-02-16T08:05:20.947Z,53.06
2023-02-16T08:06:21.031Z,62.28
2023-02-16T08:07:21.138Z,76.92
2023-02-16T08:08:21.309Z,119.16
2023-02-16T08:17:22.629Z,130.79
2023-02-16T08:21:23.173Z,116.95
2023-02-16T08:50:27.861Z,24.15
2023-02-16T08:51:27.968Z,17.81
2023-02-16T08:52:28.087Z,15.07
2023-02-16T08:53:28.193Z,14.73
2023-02-16T08:54:28.327Z,17.87
2023-02-16T08:55:28.447Z,18.68
2023-02-16T08:56:28.580Z,18.64
2023-02-16T08:57:28.707Z,27.98
2023-02-16T08:58:28.828Z,35.74
2023-02-16T08:59:29.183Z,37.76
2023-02-16T09:00:29.105Z,34.81
2023-02-16T09:01:29.264Z,32.18
2023-02-16T09:02:29.377Z,27.58
2023-02-16T09:03:29.503Z,31.10
2023-02-16T09:04:29.675Z,29.14
2023-02-16T09:05:29.778Z,22.21
2023-02-16T09:06:29.906Z,39.76
2023-02-16T09:07:30.042Z,46.24
2023-02-16T09:08:30.219Z,39.74
2023-02-16T09:09:30.326Z,49.50
2023-02-16T09:10:30.425Z,50.74
2023-02-16T09:11:30.520Z,44.43
2023-02-16T09:12:30.611Z,48.83
2023-02-16T09:13:30.695Z,58.65
2023-02-16T09:14:30.739Z,62.36
2023-02-16T09:15:30.884Z,66.29
2023-02-16T09:16:31.033Z,68.92
2023-02-16T09:17:31.115Z,68.81
2023-02-16T09:18:31.251Z,73.11
2023-02-16T09:19:31.387Z,66.21
2023-02-16T09:20:31.522Z,57.27
2023-02-16T09:21:31.640Z,70.19
2023-02-16T09:22:31.770Z,77.81
2023-02-16T09:23:31.916Z,72.05
2023-02-16T09:24:32.042Z,70.73
2023-02-16T09:25:32.176Z,66.04
2023-02-16T09:26:32.313Z,63.57
2023-02-16T09:27:32.453Z,66.30
2023-02-16T09:28:32.567Z,72.19
2023-02-16T09:29:32.746Z,64.52
2023-02-16T09:30:32.979Z,59.87
2023-02-16T09:31:33.216Z,49.88
2023-02-16T09:32:33.076Z,47.69
2023-02-16T09:33:33.159Z,44.14
2023-02-16T09:34:33.280Z,44.14
2023-02-16T09:35:33.386Z,43.05
2023-02-16T09:36:33.626Z,39.42
2023-02-16T09:37:33.617Z,40.08
2023-02-16T09:38:33.743Z,38.48
2023-02-16T09:39:33.884Z,36.80
2023-02-16T09:40:33.992Z,35.04
2023-02-16T09:41:34.118Z,33.46
2023-02-16T09:42:34.237Z,30.80
2023-02-16T09:43:34.373Z,29.88
2023-02-16T09:44:34.511Z,28.40
2023-02-16T09:45:34.603Z,25.74
2023-02-16T09:47:34.788Z,31.24
2023-02-16T10:07:36.689Z,26.43
2023-02-16T10:08:36.759Z,27.95
2023-02-16T10:09:36.817Z,30.30
2023-02-16T10:10:38.700Z,31.58
2023-02-16T10:11:36.904Z,37.61
2023-02-16T10:12:36.935Z,39.73
2023-02-16T10:13:36.967Z,44.39
2023-02-16T10:14:36.990Z,50.40
2023-02-16T10:15:37.030Z,44.77
2023-02-16T10:16:37.046Z,46.11
2023-02-16T10:17:37.075Z,43.18
2023-02-16T10:18:37.120Z,42.52
2023-02-16T10:21:37.217Z,36.48
2023-02-16T10:22:37.241Z,33.12
2023-02-16T10:23:37.269Z,30.86
2023-02-16T10:24:37.279Z,31.40
2023-02-16T10:25:37.306Z,32.78
2023-02-16T10:26:37.333Z,32.50
2023-02-16T10:27:37.373Z,34.45
2023-02-16T10:28:37.388Z,35.11
2023-02-16T10:29:37.425Z,36.11
2023-02-16T10:30:37.467Z,36.16
2023-02-16T10:31:37.594Z,36.32
2023-02-16T10:32:43.703Z,38.55
2023-02-16T10:33:38.572Z,33.14
2023-02-16T10:34:37.621Z,35.17
2023-02-16T10:35:37.664Z,37.74
2023-02-16T10:36:37.724Z,34.99
2023-02-16T10:37:37.756Z,34.39
2023-02-16T10:39:37.814Z,33.57
2023-02-16T10:40:37.838Z,35.55
2023-02-16T10:41:37.874Z,35.59
2023-02-16T10:42:37.896Z,34.89
2023-02-16T10:43:37.934Z,35.04
2023-02-16T10:44:37.957Z,37.91
2023-02-16T10:45:37.990Z,37.09
2023-02-16T10:46:38.059Z,35.79
2023-02-16T10:47:38.051Z,38.36
2023-02-16T10:48:38.063Z,36.78
2023-02-16T10:49:38.077Z,36.04
2023-02-16T10:50:38.095Z,33.29
2023-02-16T10:51:38.112Z,27.97
2023-02-16T10:52:38.159Z,25.53
2023-02-16T10:53:38.197Z,24.40
2023-02-16T10:54:38.211Z,25.56
2023-02-16T10:55:38.243Z,26.24
2023-02-16T10:56:38.292Z,25.14
2023-02-16T10:57:38.349Z,26.58
2023-02-16T10:58:38.412Z,28.06
2023-02-16T10:59:38.496Z,29.21
2023-02-16T11:00:38.586Z,30.66
2023-02-16T11:01:38.730Z,31.71
2023-02-16T11:02:38.684Z,35.47
2023-02-16T11:03:38.787Z,35.47
2023-02-16T11:04:38.890Z,35.10
2023-02-16T11:05:38.910Z,38.49
2023-02-16T11:06:38.971Z,33.81
2023-02-16T11:07:39.038Z,28.94
2023-02-16T11:08:39.093Z,25.26
2023-02-16T11:10:39.245Z,25.19
2023-02-16T13:53:47.843Z,191.47
2023-02-16T13:54:47.982Z,200.32
2023-02-16T13:55:48.091Z,235.88
2023-02-16T13:56:48.283Z,259.35
2023-02-16T13:57:50.576Z,276.67
2023-02-16T13:58:48.349Z,256.07
2023-02-16T13:59:48.276Z,257.34
2023-02-16T14:00:48.188Z,252.52
2023-02-16T14:01:48.092Z,229.85
2023-02-16T14:02:48.008Z,223.80
2023-02-16T14:03:48.043Z,220.58
2023-02-16T14:04:48.176Z,207.74
2023-02-16T14:05:48.281Z,205.16
2023-02-16T14:06:48.480Z,239.28
2023-02-16T14:07:48.662Z,249.95
2023-02-16T14:08:48.826Z,248.11
2023-02-16T14:09:48.955Z,243.50
2023-02-16T14:10:49.079Z,258.17
2023-02-16T14:11:49.230Z,271.72
2023-02-16T14:12:49.356Z,270.62
2023-02-16T14:13:49.464Z,265.94
2023-02-16T14:14:50.347Z,260.61
2023-02-16T14:15:49.527Z,253.96
2023-02-16T14:16:49.412Z,256.56
2023-02-16T14:17:49.314Z,245.55
2023-02-16T14:18:49.226Z,243.06
2023-02-16T14:19:49.138Z,242.07
2023-02-16T14:20:50.723Z,229.76
2023-02-16T14:21:48.964Z,220.40
2023-02-16T14:22:48.908Z,198.34
2023-02-16T14:23:48.804Z,213.00
2023-02-16T14:24:48.728Z,239.09
2023-02-16T14:25:48.655Z,266.14
2023-02-16T14:26:48.568Z,278.43
2023-02-16T14:27:48.508Z,266.06
2023-02-16T14:28:48.408Z,251.24
2023-02-16T14:29:48.334Z,239.74
2023-02-16T14:30:48.271Z,242.17
2023-02-16T14:31:48.249Z,253.99
2023-02-16T14:32:48.086Z,249.28
2023-02-16T14:33:47.998Z,232.15
2023-02-16T14:34:47.920Z,221.36
2023-02-16T14:35:47.871Z,206.90
2023-02-16T15:24:47.937Z,161.98
2023-02-16T15:25:48.142Z,154.80
2023-02-16T15:26:48.332Z,156.78
2023-02-16T15:27:48.550Z,158.48
2023-02-16T15:28:48.733Z,164.22
2023-02-16T15:29:48.946Z,169.75
2023-02-16T15:30:49.194Z,171.56
2023-02-16T15:31:49.434Z,178.69
2023-02-16T15:32:49.588Z,180.97
2023-02-16T15:33:49.806Z,179.52
2023-02-16T15:34:50.029Z,164.94
2023-02-16T15:35:50.240Z,158.01
2023-02-16T15:36:50.462Z,178.08
2023-02-16T15:37:50.659Z,183.22
2023-02-16T15:38:50.858Z,181.80
2023-02-16T15:40:08.731Z,169.54
2023-02-16T15:40:52.039Z,157.73
2023-02-16T15:41:51.026Z,161.08
2023-02-16T15:42:50.980Z,146.35
2023-02-16T15:43:50.949Z,137.02
2023-02-16T15:44:50.924Z,136.36
2023-02-16T15:45:50.886Z,134.16
2023-02-16T15:46:50.912Z,137.90
2023-02-16T15:47:50.836Z,149.98
2023-02-16T15:48:50.813Z,153.91
2023-02-16T15:49:50.777Z,171.67
2023-02-16T15:50:50.747Z,164.48
2023-02-16T15:51:50.723Z,170.56
2023-02-16T15:52:50.729Z,168.92
2023-02-16T15:53:50.775Z,151.86
2023-02-16T15:54:50.796Z,153.53
2023-02-16T15:55:50.832Z,157.71
2023-02-16T15:56:50.882Z,162.29
2023-02-16T15:57:50.904Z,166.69
2023-02-16T15:58:50.930Z,166.77
2023-02-16T15:59:50.918Z,168.29
2023-02-16T16:00:50.912Z,174.70
2023-02-16T16:01:50.936Z,181.37
2023-02-16T16:02:50.929Z,182.18
2023-02-16T16:03:51.203Z,171.82
2023-02-16T16:04:51.824Z,174.91
2023-02-16T17:09:17.867Z,43.54
2023-02-16T17:10:18.043Z,37.48
2023-02-16T17:11:18.219Z,42.87
2023-02-16T17:12:18.420Z,85.69
2023-02-16T17:13:18.611Z,111.12
2023-02-16T17:14:18.796Z,116.01
2023-02-16T17:15:18.959Z,105.64
2023-02-16T17:16:19.192Z,114.56
2023-02-16T17:17:19.333Z,94.03
2023-02-16T17:18:19.519Z,34.83
2023-02-16T17:19:19.692Z,0.00
2023-02-16T17:20:19.845Z,3.43
2023-02-16T17:21:20.021Z,33.47
2023-02-16T17:22:20.240Z,82.89
2023-02-16T17:23:20.356Z,65.04
2023-02-16T17:24:20.556Z,80.83
2023-02-16T17:25:20.748Z,120.00
2023-02-16T17:26:20.892Z,131.91
2023-02-16T17:27:21.067Z,133.80
2023-02-16T17:28:21.245Z,134.82
2023-02-16T17:29:21.421Z,168.63
2023-02-16T17:30:21.666Z,232.82
2023-02-16T17:31:21.874Z,283.10
2023-02-16T17:32:22.028Z,269.86
2023-02-16T17:33:22.066Z,257.04
2023-02-16T17:34:22.238Z,248.19
2023-02-16T17:35:22.510Z,231.70
2023-02-16T17:36:22.608Z,221.79
2023-02-16T17:37:22.734Z,213.81
2023-02-16T17:38:22.892Z,165.58
2023-02-16T17:39:23.056Z,177.95
2023-02-16T17:40:23.228Z,178.76
2023-02-16T17:41:23.395Z,140.02
2023-02-16T17:42:23.573Z,148.89
2023-02-16T18:57:27.815Z,181.43
2023-02-16T18:58:27.849Z,169.41
2023-02-16T18:59:27.886Z,155.93
2023-02-16T19:00:27.939Z,144.80
2023-02-16T19:01:27.986Z,136.26
2023-02-16T19:02:28.137Z,132.96
2023-02-16T19:03:30.214Z,138.50
2023-02-16T19:04:28.290Z,136.07
2023-02-16T19:05:28.295Z,144.36
2023-02-16T19:06:28.355Z,162.72
2023-02-16T19:07:28.396Z,178.49
2023-02-16T19:08:28.447Z,109.25
2023-02-16T19:09:28.488Z,80.02
2023-02-16T19:10:28.520Z,56.94
2023-02-16T19:11:28.581Z,55.22
2023-02-16T19:12:28.658Z,46.55
2023-02-16T19:13:28.741Z,51.21
2023-02-16T19:14:28.844Z,49.00
2023-02-16T19:15:28.931Z,43.37
2023-02-16T19:16:29.004Z,29.98
2023-02-16T19:17:29.096Z,25.05
2023-02-16T19:18:29.237Z,25.65
2023-02-16T19:19:30.954Z,46.82
2023-02-16T19:20:29.358Z,65.50
2023-02-16T19:21:29.414Z,64.26
2023-02-16T19:22:29.461Z,56.96
2023-02-16T19:23:29.509Z,67.36
2023-02-16T19:24:29.526Z,70.36
2023-02-16T21:25:37.890Z,189.42
2023-02-16T21:26:38.041Z,211.22
2023-02-16T21:27:38.135Z,227.37
2023-02-16T21:28:38.190Z,236.58
2023-02-16T21:30:38.299Z,244.24
2023-02-16T21:31:38.489Z,245.79
2023-02-16T21:32:38.479Z,245.88
2023-02-16T21:33:38.639Z,246.28
2023-02-16T21:34:38.722Z,247.18
2023-02-16T21:35:38.781Z,248.71
2023-02-16T21:36:38.886Z,236.55
2023-02-16T21:37:38.888Z,231.40
2023-02-16T21:38:38.947Z,226.98
2023-02-16T21:39:39.059Z,215.48
2023-02-16T21:40:39.220Z,201.93
2023-02-16T21:41:39.262Z,178.34
2023-02-16T21:42:39.321Z,128.72
2023-02-16T21:43:39.365Z,101.99
2023-02-16T21:44:39.399Z,80.81
2023-02-16T21:45:39.459Z,68.97
2023-02-16T21:46:39.544Z,71.14
2023-02-16T21:47:39.664Z,76.27
2023-02-16T21:48:39.729Z,80.07
2023-02-16T21:49:39.830Z,84.37
2023-02-16T21:50:39.969Z,84.06
2023-02-16T21:51:40.053Z,87.48
2023-02-16T21:52:40.162Z,78.30
2023-02-16T21:53:40.267Z,73.69
2023-02-16T21:54:40.376Z,92.45
2023-02-16T21:55:40.457Z,111.99
2023-02-16T21:56:40.550Z,120.15
2023-02-16T21:57:40.652Z,113.28
2023-02-16T21:58:40.826Z,127.51
2023-02-16T21:59:40.834Z,133.92
2023-02-16T22:00:40.967Z,152.23
2023-02-16T22:01:41.020Z,159.39
2023-02-16T22:02:41.131Z,165.90
2023-02-16T22:03:41.268Z,168.40
2023-02-16T22:04:41.400Z,165.79
2023-02-16T22:05:41.557Z,154.12
2023-02-16T22:06:41.683Z,148.99
2023-02-16T22:07:41.823Z,148.23
2023-02-16T22:08:41.917Z,147.20
2023-02-16T22:09:41.979Z,149.15
2023-02-16T22:10:42.055Z,150.28
2023-02-16T22:11:42.132Z,153.31
2023-02-16T22:12:42.212Z,152.51
2023-02-16T23:09:47.991Z,143.25
2023-02-16T23:10:48.169Z,128.83
2023-02-16T23:11:48.388Z,120.06
2023-02-16T23:12:48.607Z,92.28
2023-02-16T23:13:48.807Z,76.06
2023-02-16T23:14:49.015Z,59.39
2023-02-16T23:15:49.197Z,47.43
2023-02-16T23:16:49.440Z,33.11
2023-02-16T23:17:49.586Z,21.79
2023-02-16T23:18:49.799Z,20.27
2023-02-16T23:19:50.033Z,22.90
2023-02-16T23:20:50.233Z,25.00
2023-02-16T23:21:50.422Z,25.00
2023-02-16T23:22:50.650Z,23.57
2023-02-16T23:23:50.902Z,24.76
2023-02-16T23:24:51.089Z,30.54
2023-02-16T23:25:51.289Z,54.17
2023-02-16T23:26:51.508Z,73.14
2023-02-16T23:27:51.682Z,82.38
2023-02-16T23:28:51.851Z,77.87
2023-02-16T23:29:51.954Z,72.16
2023-02-16T23:30:52.102Z,59.74
2023-02-16T23:31:52.185Z,47.90
2023-02-16T23:32:52.262Z,45.05
2023-02-16T23:33:52.407Z,34.29
2023-02-16T23:34:52.494Z,27.96
2023-02-16T23:35:52.583Z,25.00
2023-02-16T23:36:52.662Z,22.58
2023-02-16T23:37:52.726Z,22.51
2023-02-16T23:38:52.788Z,23.56
2023-02-16T23:39:52.836Z,25.04
2023-02-16T23:40:52.911Z,27.33
2023-02-16T23:41:53.007Z,26.08
2023-02-16T23:42:53.121Z,25.40
2023-02-16T23:43:53.234Z,27.66
2023-02-16T23:44:53.359Z,39.67
2023-02-16T23:45:53.500Z,48.54
2023-02-16T23:46:53.678Z,60.13
2023-02-16T23:47:53.707Z,80.69
2023-02-16T23:48:53.905Z,74.82
2023-02-16T23:49:53.951Z,62.47
2023-02-16T23:50:54.074Z,58.33
2023-02-16T23:51:54.185Z,50.97
